createdAt,value
2023-02-08T00:00:37.282Z,55.58
2023-02-08T00:03:12.451Z,56.45
2023-02-08T00:05:46.248Z,55.25
2023-02-08T00:08:19.808Z,55.58
2023-02-08T00:10:53.370Z,44.67
2023-02-08T00:13:27.306Z,47.85
2023-02-08T00:16:01.122Z,58.30
2023-02-08T00:18:36.101Z,53.97
2023-02-08T00:21:11.425Z,51.83
2023-02-08T00:23:45.277Z,52.88
2023-02-08T00:26:18.988Z,51.25
2023-02-08T00:28:52.725Z,57.67
2023-02-08T00:31:26.254Z,59.53
2023-02-08T00:34:01.302Z,47.65
2023-02-08T00:36:34.822Z,60.08
2023-02-08T00:39:08.327Z,66.57
2023-02-08T00:41:41.947Z,70.22
2023-02-08T00:44:15.508Z,57.45
2023-02-08T00:46:49.081Z,53.55
2023-02-08T00:49:25.668Z,68.47
2023-02-08T00:51:59.164Z,60.42
2023-02-08T00:54:32.733Z,67.40
2023-02-08T00:57:06.229Z,64.00
2023-02-08T00:59:39.715Z,63.65
2023-02-08T01:02:13.581Z,60.78
2023-02-08T01:04:48.685Z,81.47
2023-02-08T01:07:22.239Z,55.47
2023-02-08T01:09:55.695Z,67.57
2023-02-08T01:12:29.274Z,62.58
2023-02-08T01:15:02.793Z,73.78
2023-02-08T01:17:37.013Z,61.47
2023-02-08T01:20:13.208Z,73.22
2023-02-08T01:22:46.737Z,54.20
2023-02-08T01:25:20.324Z,65.50
2023-02-08T01:27:55.652Z,60.22
2023-02-08T01:30:29.275Z,57.95
2023-02-08T01:33:02.804Z,68.00
2023-02-08T01:35:37.742Z,53.03
2023-02-08T01:38:11.341Z,53.65
2023-02-08T01:40:45.010Z,58.97
2023-02-08T01:43:23.529Z,44.42
2023-02-08T01:45:57.424Z,52.15
2023-02-08T01:48:35.434Z,50.55
2023-02-08T01:51:15.180Z,57.85
2023-02-08T01:53:51.924Z,48.00
2023-02-08T01:56:30.797Z,52.70
2023-02-08T01:59:07.936Z,44.80
2023-02-08T02:01:43.357Z,51.13
2023-02-08T02:04:17.544Z,45.50
2023-02-08T02:06:55.394Z,43.95
2023-02-08T02:09:37.842Z,45.60
2023-02-08T02:14:46.064Z,51.65
2023-02-08T02:17:21.062Z,46.30
2023-02-08T02:20:04.712Z,50.33
2023-02-08T02:23:19.857Z,47.47
2023-02-08T02:26:33.600Z,55.13
2023-02-08T02:29:40.868Z,47.15
2023-02-08T02:32:25.646Z,55.72
2023-02-08T02:35:05.193Z,53.45
2023-02-08T02:37:52.132Z,46.10
2023-02-08T02:40:35.714Z,52.45
2023-02-08T02:43:32.792Z,44.08
2023-02-08T02:46:15.191Z,42.63
2023-02-08T02:51:29.308Z,50.22
2023-02-08T02:54:07.537Z,47.17
2023-02-08T02:56:43.708Z,48.75
2023-02-08T02:59:19.261Z,51.72
2023-02-08T03:01:56.059Z,43.75
2023-02-08T03:04:51.043Z,46.40
2023-02-08T03:07:50.140Z,43.85
2023-02-08T03:10:34.650Z,50.22
2023-02-08T03:13:18.156Z,51.25
2023-02-08T03:16:02.254Z,57.35
2023-02-08T03:18:42.830Z,54.95
2023-02-08T03:21:24.358Z,57.50
2023-02-08T03:24:03.509Z,42.00
2023-02-08T03:26:40.793Z,35.63
2023-02-08T03:29:28.460Z,41.05
2023-02-08T03:32:05.739Z,44.92
2023-02-08T03:34:47.207Z,43.70
2023-02-08T03:37:25.034Z,40.88
2023-02-08T03:40:02.935Z,44.17
2023-02-08T03:42:38.136Z,45.67
2023-02-08T03:45:17.147Z,40.25
2023-02-08T03:47:53.066Z,50.08
2023-02-08T03:50:28.384Z,42.08
2023-02-08T03:53:05.119Z,42.38
2023-02-08T04:08:34.418Z,49.28
2023-02-08T04:11:08.066Z,37.00
2023-02-08T04:13:41.571Z,47.97
2023-02-08T04:16:15.399Z,45.92
2023-02-08T04:18:48.885Z,43.08
2023-02-08T04:21:22.441Z,39.95
2023-02-08T04:23:57.332Z,40.08
2023-02-08T04:26:30.845Z,40.17
2023-02-08T04:29:04.331Z,35.67
2023-02-08T04:31:37.989Z,40.65
2023-02-08T04:34:11.649Z,39.15
2023-02-08T04:36:45.184Z,35.90
2023-02-08T04:39:20.181Z,33.95
2023-02-08T04:41:53.786Z,46.08
2023-02-08T04:44:27.328Z,35.40
2023-02-08T04:47:01.064Z,38.83
2023-02-08T04:49:34.716Z,39.13
2023-02-08T04:52:08.241Z,38.72
2023-02-08T04:54:43.160Z,36.42
2023-02-08T04:57:16.699Z,40.95
2023-02-08T04:59:50.205Z,64.22
2023-02-08T05:02:23.715Z,89.97
2023-02-08T05:04:57.289Z,47.15
2023-02-08T05:07:30.840Z,60.33
2023-02-08T05:10:06.115Z,61.70
2023-02-08T05:12:39.724Z,50.42
2023-02-08T05:15:13.462Z,53.13
2023-02-08T05:17:47.039Z,57.63
2023-02-08T05:20:21.698Z,50.40
2023-02-08T05:22:55.210Z,56.90
2023-02-08T05:25:30.157Z,59.78
2023-02-08T05:28:04.402Z,77.55
2023-02-08T05:30:40.195Z,65.63
2023-02-08T05:33:13.911Z,70.78
2023-02-08T05:35:47.527Z,54.28
2023-02-08T05:38:21.127Z,64.70
2023-02-08T05:40:56.070Z,61.38
2023-02-08T05:43:29.696Z,57.58
2023-02-08T05:46:03.182Z,59.90
2023-02-08T05:48:36.739Z,51.63
2023-02-08T05:51:10.604Z,44.10
2023-02-08T05:53:45.478Z,45.35
2023-02-08T05:56:20.360Z,47.40
2023-02-08T05:58:54.370Z,57.20
2023-02-08T06:01:32.490Z,53.80
2023-02-08T06:04:06.197Z,62.28
2023-02-08T06:06:39.737Z,56.45
2023-02-08T06:09:13.328Z,54.80
2023-02-08T06:11:48.223Z,48.58
2023-02-08T06:14:22.063Z,52.53
2023-02-08T06:16:55.556Z,42.08
2023-02-08T06:19:29.170Z,62.25
2023-02-08T06:22:02.716Z,50.42
2023-02-08T06:24:36.339Z,49.63
2023-02-08T06:27:11.472Z,42.60
2023-02-08T06:29:45.028Z,44.78
2023-02-08T06:32:18.633Z,51.28
2023-02-08T06:34:52.445Z,43.67
2023-02-08T06:37:26.033Z,54.75
2023-02-08T06:40:00.695Z,56.47
2023-02-08T06:42:35.662Z,58.53
2023-02-08T06:45:13.350Z,58.45
2023-02-08T06:47:47.187Z,53.42
2023-02-08T06:50:22.097Z,57.25
2023-02-08T06:52:57.651Z,51.58
2023-02-08T06:55:31.195Z,57.70
2023-02-08T06:58:06.126Z,48.17
2023-02-08T07:00:40.413Z,45.25
2023-02-08T07:03:15.128Z,45.80
2023-02-08T07:06:03.665Z,42.53
2023-02-08T07:08:37.508Z,47.95
2023-02-08T07:11:12.320Z,54.33
2023-02-08T07:13:49.703Z,65.95
2023-02-08T07:16:23.389Z,82.88
2023-02-08T07:18:56.897Z,65.18
2023-02-08T07:21:30.401Z,62.90
2023-02-08T07:24:03.956Z,59.00
2023-02-08T07:26:37.475Z,53.00
2023-02-08T07:29:12.346Z,55.55
2023-02-08T07:31:45.880Z,42.13
2023-02-08T07:34:21.969Z,49.50
2023-02-08T07:36:55.701Z,44.88
2023-02-08T07:39:31.426Z,53.40
2023-02-08T07:42:06.310Z,46.72
2023-02-08T07:44:49.225Z,42.08
2023-02-08T07:47:22.704Z,53.00
2023-02-08T07:49:56.191Z,51.70
2023-02-08T07:52:30.542Z,41.42
2023-02-08T07:55:04.146Z,47.45
2023-02-08T07:57:37.632Z,50.70
2023-02-08T08:00:13.916Z,45.00
2023-02-08T08:02:47.425Z,44.33
2023-02-08T08:05:21.736Z,50.08
2023-02-08T08:07:55.231Z,41.25
2023-02-08T08:10:28.801Z,39.22
2023-02-08T08:13:02.403Z,48.10
2023-02-08T08:15:37.305Z,42.03
2023-02-08T08:18:10.935Z,40.45
2023-02-08T08:20:44.511Z,34.42
2023-02-08T08:23:19.597Z,33.33
2023-02-08T08:25:53.123Z,32.53
2023-02-08T08:28:27.806Z,35.58
2023-02-08T08:31:03.098Z,35.70
2023-02-08T08:33:36.762Z,34.03
2023-02-08T08:36:10.719Z,40.75
2023-02-08T08:38:44.375Z,47.38
2023-02-08T08:41:19.057Z,53.22
2023-02-08T08:43:53.025Z,50.20
2023-02-08T08:46:28.024Z,30.83
2023-02-08T08:49:01.574Z,34.75
2023-02-08T08:51:35.600Z,21.45
2023-02-08T08:54:09.582Z,15.63
2023-02-08T08:56:43.195Z,16.13
2023-02-08T08:59:16.724Z,14.77
2023-02-08T09:01:51.752Z,13.88
2023-02-08T09:04:25.360Z,12.73
2023-02-08T09:06:58.854Z,12.02
2023-02-08T09:09:32.351Z,17.17
2023-02-08T09:12:06.327Z,11.98
2023-02-08T09:14:39.822Z,29.20
2023-02-08T09:17:14.892Z,14.85
2023-02-08T09:19:48.457Z,18.67
2023-02-08T09:22:22.067Z,17.25
2023-02-08T09:24:56.004Z,16.75
2023-02-08T09:27:30.170Z,21.95
2023-02-08T09:30:04.125Z,15.85
2023-02-08T09:32:40.152Z,9.18
2023-02-08T09:35:15.458Z,15.93
2023-02-08T09:37:54.491Z,16.88
2023-02-08T09:40:33.204Z,7.82
2023-02-08T09:43:14.260Z,8.50
2023-02-08T09:45:59.834Z,6.55
2023-02-08T09:48:37.782Z,6.78
2023-02-08T09:51:23.890Z,8.18
2023-02-08T09:54:01.296Z,9.40
2023-02-08T09:56:40.308Z,9.38
2023-02-08T09:59:17.273Z,13.18
2023-02-08T10:01:52.796Z,8.38
2023-02-08T10:04:35.860Z,12.80
2023-02-08T10:07:12.176Z,7.82
2023-02-08T10:09:45.684Z,8.30
2023-02-08T10:12:27.270Z,8.35
2023-02-08T10:15:11.751Z,12.75
2023-02-08T10:18:11.203Z,13.20
2023-02-08T10:21:11.474Z,9.68
2023-02-08T10:24:08.978Z,10.80
2023-02-08T10:26:47.464Z,8.32
2023-02-08T10:29:49.774Z,6.88
2023-02-08T10:32:43.805Z,5.57
2023-02-08T10:35:24.473Z,5.85
2023-02-08T10:38:00.352Z,5.20
2023-02-08T10:40:38.872Z,6.75
2023-02-08T10:43:22.413Z,6.13
2023-02-08T10:46:03.451Z,4.97
2023-02-08T10:48:47.638Z,6.43
2023-02-08T10:51:22.522Z,4.60
2023-02-08T10:53:58.225Z,5.68
2023-02-08T10:56:52.617Z,6.35
2023-02-08T10:59:30.134Z,5.00
2023-02-08T11:02:04.009Z,4.82
2023-02-08T11:05:01.575Z,5.40
2023-02-08T11:07:36.870Z,6.75
2023-02-08T11:10:25.203Z,5.03
2023-02-08T11:13:01.048Z,9.65
2023-02-08T11:15:45.006Z,5.10
2023-02-08T11:18:23.877Z,5.35
2023-02-08T11:21:00.008Z,4.43
2023-02-08T11:23:35.622Z,4.22
2023-02-08T11:26:20.014Z,3.65
2023-02-08T11:29:06.048Z,3.22
2023-02-08T11:31:40.868Z,6.30
2023-02-08T11:34:14.431Z,3.53
2023-02-08T11:36:48.853Z,4.72
2023-02-08T11:39:27.056Z,3.30
2023-02-08T11:42:03.547Z,5.57
2023-02-08T11:44:43.121Z,4.25
2023-02-08T11:47:20.520Z,3.63
2023-02-08T11:49:57.118Z,2.90
2023-02-08T11:52:35.463Z,6.05
2023-02-08T11:55:25.687Z,4.93
2023-02-08T11:58:03.202Z,5.72
2023-02-08T12:00:38.725Z,4.00
2023-02-08T12:03:18.486Z,3.42
2023-02-08T12:06:00.723Z,4.05
2023-02-08T12:08:41.891Z,3.17
2023-02-08T12:11:27.968Z,4.20
2023-02-08T12:14:17.770Z,4.70
2023-02-08T12:17:12.434Z,2.78
2023-02-08T12:20:23.296Z,4.22
2023-02-08T12:23:05.671Z,5.65
2023-02-08T12:25:46.877Z,5.53
2023-02-08T12:28:38.933Z,5.63
2023-02-08T12:31:22.552Z,5.55
2023-02-08T12:34:06.718Z,3.55
2023-02-08T12:37:13.073Z,3.72
2023-02-08T12:40:11.121Z,3.35
2023-02-08T12:43:07.778Z,4.72
2023-02-08T12:46:11.252Z,4.43
2023-02-08T12:49:04.318Z,3.80
2023-02-08T12:51:46.788Z,4.68
2023-02-08T12:54:31.584Z,6.05
2023-02-08T12:57:06.777Z,3.03
2023-02-08T12:59:44.913Z,3.35
2023-02-08T13:02:22.582Z,5.55
2023-02-08T13:05:02.198Z,4.68
2023-02-08T13:07:42.346Z,5.90
2023-02-08T13:10:26.734Z,3.88
2023-02-08T13:13:04.807Z,6.03
2023-02-08T13:15:41.439Z,3.38
2023-02-08T13:18:20.006Z,5.25
2023-02-08T13:20:58.070Z,3.95
2023-02-08T13:23:50.547Z,4.85
2023-02-08T13:26:29.160Z,5.20
2023-02-08T13:29:04.165Z,7.05
2023-02-08T13:31:42.292Z,7.70
2023-02-08T13:34:19.664Z,2.97
2023-02-08T13:36:59.702Z,5.45
2023-02-08T13:39:36.900Z,4.15
2023-02-08T13:42:22.397Z,5.30
2023-02-08T13:44:58.305Z,5.13
2023-02-08T13:47:34.210Z,3.70
2023-02-08T13:50:49.033Z,4.35
2023-02-08T13:54:03.923Z,6.82
2023-02-08T13:56:43.238Z,5.18
2023-02-08T13:59:36.312Z,5.32
2023-02-08T14:05:31.284Z,2.95
2023-02-08T14:08:08.951Z,6.32
2023-02-08T14:10:46.562Z,3.83
2023-02-08T14:13:28.870Z,3.92
2023-02-08T14:16:27.551Z,5.30
2023-02-08T14:19:02.800Z,4.72
2023-02-08T14:21:39.535Z,4.38
2023-02-08T14:24:24.588Z,2.75
2023-02-08T14:27:09.672Z,4.20
2023-02-08T14:29:43.532Z,5.38
2023-02-08T14:32:25.150Z,6.05
2023-02-08T14:35:05.594Z,5.95
2023-02-08T14:37:39.385Z,7.15
2023-02-08T14:40:50.341Z,12.63
2023-02-08T14:43:34.978Z,23.20
2023-02-08T14:46:45.507Z,20.85
2023-02-08T14:49:20.247Z,13.98
2023-02-08T14:51:59.653Z,21.77
2023-02-08T14:54:37.342Z,12.20
2023-02-08T14:57:28.049Z,17.42
2023-02-08T15:00:08.606Z,14.82
2023-02-08T15:02:46.322Z,9.55
2023-02-08T15:05:24.429Z,12.18
2023-02-08T15:07:59.890Z,13.50
2023-02-08T15:10:35.199Z,13.40
2023-02-08T15:13:19.544Z,13.65
2023-02-08T15:15:58.442Z,15.57
2023-02-08T15:18:34.287Z,21.27
2023-02-08T15:21:16.600Z,22.10
2023-02-08T15:24:00.868Z,20.42
2023-02-08T15:26:34.823Z,16.45
2023-02-08T15:29:24.638Z,15.48
2023-02-08T15:32:01.934Z,11.57
2023-02-08T15:34:36.081Z,14.23
2023-02-08T15:37:19.856Z,21.10
2023-02-08T15:39:56.179Z,10.90
2023-02-08T15:42:33.283Z,9.02
2023-02-08T15:45:24.518Z,14.30
2023-02-08T15:48:00.592Z,18.45
2023-02-08T15:50:34.939Z,14.18
2023-02-08T15:53:14.111Z,13.70
2023-02-08T15:55:51.265Z,11.68
2023-02-08T15:58:30.070Z,15.18
2023-02-08T16:01:06.527Z,13.45
2023-02-08T16:03:41.562Z,14.85
2023-02-08T16:06:15.144Z,14.52
2023-02-08T16:08:52.579Z,15.35
2023-02-08T16:11:29.498Z,14.60
2023-02-08T16:14:05.212Z,18.48
2023-02-08T16:16:41.906Z,17.95
2023-02-08T16:19:30.747Z,17.98
2023-02-08T16:22:25.599Z,18.35
2023-02-08T16:25:23.676Z,21.00
2023-02-08T16:27:57.269Z,19.25
2023-02-08T16:30:30.997Z,20.73
2023-02-08T16:33:09.139Z,19.05
2023-02-08T16:35:44.258Z,28.25
2023-02-08T16:38:22.588Z,33.78
2023-02-08T16:40:59.185Z,48.22
2023-02-08T16:43:35.172Z,39.70
2023-02-08T16:46:26.863Z,31.60
2023-02-08T16:49:00.403Z,38.00
2023-02-08T16:51:35.832Z,42.30
2023-02-08T16:54:12.641Z,53.78
2023-02-08T16:56:47.655Z,32.67
2023-02-08T16:59:21.398Z,42.10
2023-02-08T17:01:56.484Z,45.50
2023-02-08T17:04:32.115Z,71.57
2023-02-08T17:07:07.403Z,45.67
2023-02-08T17:09:42.359Z,49.25
2023-02-08T17:12:22.497Z,46.30
2023-02-08T17:14:56.675Z,80.80
2023-02-08T17:17:30.151Z,95.68
2023-02-08T17:20:03.635Z,78.43
2023-02-08T17:22:38.550Z,65.50
2023-02-08T17:25:15.624Z,69.35
2023-02-08T17:27:53.151Z,68.45
2023-02-08T17:30:28.659Z,68.75
2023-02-08T17:33:03.921Z,79.13
2023-02-08T17:35:38.298Z,84.25
2023-02-08T17:38:13.945Z,80.38
2023-02-08T17:40:47.586Z,83.57
2023-02-08T17:43:23.219Z,83.38
2023-02-08T17:45:56.701Z,60.47
2023-02-08T17:48:30.363Z,71.90
2023-02-08T17:51:08.572Z,88.80
2023-02-08T17:53:44.026Z,84.10
2023-02-08T17:56:20.508Z,83.75
2023-02-08T17:58:55.397Z,70.72
2023-02-08T18:01:29.187Z,120.10
2023-02-08T18:04:03.087Z,81.68
2023-02-08T18:06:36.744Z,103.32
2023-02-08T18:09:11.657Z,95.63
2023-02-08T18:11:45.210Z,102.03
2023-02-08T18:14:20.419Z,91.80
2023-02-08T18:16:53.965Z,115.63
2023-02-08T18:19:27.503Z,123.07
2023-02-08T18:22:03.777Z,118.00
2023-02-08T18:24:38.793Z,99.45
2023-02-08T18:27:12.321Z,82.70
2023-02-08T18:29:45.835Z,99.22
2023-02-08T18:32:20.380Z,83.53
2023-02-08T18:34:53.943Z,85.95
2023-02-08T18:37:27.505Z,184.63
2023-02-08T18:40:02.794Z,111.53
2023-02-08T18:42:36.759Z,104.53
2023-02-08T18:45:11.186Z,123.45
2023-02-08T18:47:44.672Z,128.63
2023-02-08T18:50:18.280Z,110.18
2023-02-08T18:52:51.782Z,125.10
2023-02-08T18:55:26.782Z,125.88
2023-02-08T18:58:00.315Z,148.30
2023-02-08T19:00:34.012Z,172.90
2023-02-08T19:03:08.925Z,205.45
2023-02-08T19:05:42.823Z,162.00
2023-02-08T19:08:17.572Z,192.32
2023-02-08T19:10:52.635Z,181.90
2023-02-08T19:13:26.303Z,167.45
2023-02-08T19:16:00.092Z,176.77
2023-02-08T19:18:33.756Z,183.07
2023-02-08T19:21:09.386Z,141.57
2023-02-08T19:23:43.127Z,132.57
2023-02-08T19:26:21.644Z,115.53
2023-02-08T19:28:57.591Z,173.27
2023-02-08T19:31:32.217Z,114.43
2023-02-08T19:34:06.514Z,104.65
2023-02-08T19:36:44.146Z,96.80
2023-02-08T19:39:20.430Z,92.88
2023-02-08T19:41:58.754Z,99.13
2023-02-08T19:44:32.865Z,93.35
2023-02-08T19:47:06.505Z,93.72
2023-02-08T19:49:40.184Z,84.45
2023-02-08T19:52:16.169Z,95.88
2023-02-08T19:54:50.081Z,89.72
2023-02-08T19:57:25.790Z,87.00
2023-02-08T19:59:59.530Z,87.95
2023-02-08T20:02:33.340Z,94.88
2023-02-08T20:05:07.719Z,101.10
2023-02-08T20:07:41.370Z,92.30
2023-02-08T20:10:15.093Z,75.30
2023-02-08T20:12:50.089Z,115.18
2023-02-08T20:15:23.675Z,194.38
2023-02-08T20:17:57.893Z,114.47
2023-02-08T20:20:31.627Z,91.80
2023-02-08T20:23:14.188Z,104.60
2023-02-08T20:25:51.114Z,96.95
2023-02-08T20:28:26.192Z,99.53
2023-02-08T20:31:00.111Z,105.88
2023-02-08T20:33:33.966Z,109.78
2023-02-08T20:36:09.894Z,119.45
2023-02-08T20:38:43.920Z,177.00
2023-02-08T20:41:18.559Z,144.05
2023-02-08T20:43:54.754Z,138.07
2023-02-08T20:46:31.292Z,142.35
2023-02-08T20:49:06.650Z,94.45
2023-02-08T20:51:40.325Z,107.20
2023-02-08T20:54:13.919Z,94.10
2023-02-08T20:56:47.582Z,123.72
2023-02-08T20:59:22.897Z,141.45
2023-02-08T21:01:57.557Z,142.38
2023-02-08T21:04:31.192Z,117.18
2023-02-08T21:07:04.972Z,111.85
2023-02-08T21:09:38.927Z,109.25
2023-02-08T21:12:13.129Z,89.35
2023-02-08T21:14:48.550Z,97.55
2023-02-08T21:17:22.373Z,102.30
2023-02-08T21:19:56.014Z,107.70
2023-02-08T21:22:29.779Z,123.55
2023-02-08T21:25:03.411Z,138.68
2023-02-08T21:27:37.054Z,104.75
2023-02-08T21:30:13.154Z,106.25
2023-02-08T21:32:46.817Z,117.35
2023-02-08T21:35:20.556Z,111.03
2023-02-08T21:37:54.270Z,120.07
2023-02-08T21:40:27.877Z,116.70
2023-02-08T21:43:01.393Z,129.38
2023-02-08T21:45:36.434Z,107.10
2023-02-08T21:48:10.118Z,97.10
2023-02-08T21:51:01.277Z,115.40
2023-02-08T21:53:52.512Z,113.80
2023-02-08T21:56:26.097Z,135.60
2023-02-08T21:58:59.874Z,140.52
2023-02-08T22:01:35.077Z,186.70
2023-02-08T22:04:08.695Z,133.73
2023-02-08T22:06:50.790Z,132.65
2023-02-08T22:11:57.883Z,140.43
2023-02-08T22:14:31.474Z,217.50
2023-02-08T22:17:06.686Z,145.27
2023-02-08T22:19:41.035Z,203.52
2023-02-08T22:22:14.873Z,182.50
2023-02-08T22:24:48.437Z,184.02
2023-02-08T22:27:21.986Z,176.30
2023-02-08T22:29:55.525Z,192.48
2023-02-08T22:32:30.494Z,206.43
2023-02-08T22:35:04.053Z,197.18
2023-02-08T22:37:37.974Z,190.23
2023-02-08T22:40:12.898Z,217.60
2023-02-08T22:42:46.487Z,212.65
2023-02-08T22:45:20.135Z,205.98
2023-02-08T22:47:55.018Z,188.55
2023-02-08T22:50:28.587Z,185.80
2023-02-08T22:53:03.238Z,245.30
2023-02-08T22:55:45.049Z,260.85
2023-02-08T23:00:52.059Z,259.70
2023-02-08T23:03:27.162Z,237.45
2023-02-08T23:06:00.696Z,183.10
2023-02-08T23:08:34.430Z,187.05
2023-02-08T23:11:08.201Z,151.93
2023-02-08T23:13:42.137Z,177.68
2023-02-08T23:16:17.079Z,265.35
2023-02-08T23:18:52.066Z,265.92
2023-02-08T23:21:25.714Z,238.55
2023-02-08T23:23:59.295Z,245.45
2023-02-08T23:26:32.907Z,250.75
2023-02-08T23:29:06.949Z,207.57
2023-02-08T23:31:41.672Z,235.05
2023-02-08T23:34:16.864Z,178.65
2023-02-08T23:36:50.443Z,169.85
2023-02-08T23:39:23.997Z,174.90
2023-02-08T23:41:57.762Z,190.95
2023-02-08T23:44:31.249Z,220.95
2023-02-08T23:47:04.903Z,197.55
2023-02-08T23:49:39.915Z,188.13
2023-02-08T23:52:13.638Z,223.65
2023-02-08T23:54:47.191Z,208.85
2023-02-08T23:57:20.750Z,196.88
2023-02-08T23:59:54.278Z,233.73
